sensor_id;sensor_type;location;lat;lon;timestamp;pressure;altitude;pressure_sealevel;temperature;humidity
45813;BME280;31519;45.408;10.962;2022-11-15T00:02:24;101094.56;;;11.24;95.23
45813;BME280;31519;45.408;10.962;2022-11-15T00:05:10;101097.16;;;11.29;94.23
45813;BME280;31519;45.408;10.962;2022-11-15T00:07:57;101094.94;;;11.49;93.56
45813;BME280;31519;45.408;10.962;2022-11-15T00:10:57;101089.97;;;11.70;92.87
45813;BME280;31519;45.408;10.962;2022-11-15T00:13:44;101086.94;;;11.63;92.52
45813;BME280;31519;45.408;10.962;2022-11-15T00:16:31;101091.84;;;11.56;92.11
45813;BME280;31519;45.408;10.962;2022-11-15T00:19:17;101087.94;;;11.81;90.76
45813;BME280;31519;45.408;10.962;2022-11-15T00:22:04;101083.69;;;11.93;89.02
45813;BME280;31519;45.408;10.962;2022-11-15T00:24:51;101078.13;;;12.04;88.51
45813;BME280;31519;45.408;10.962;2022-11-15T00:27:37;101073.97;;;12.11;87.86
45813;BME280;31519;45.408;10.962;2022-11-15T00:30:24;101070.72;;;12.14;87.09
45813;BME280;31519;45.408;10.962;2022-11-15T00:33:12;101065.00;;;12.29;86.83
45813;BME280;31519;45.408;10.962;2022-11-15T00:36:07;101071.97;;;12.17;87.14
45813;BME280;31519;45.408;10.962;2022-11-15T00:38:55;101079.41;;;12.42;85.37
45813;BME280;31519;45.408;10.962;2022-11-15T00:41:42;101079.13;;;12.43;85.18
45813;BME280;31519;45.408;10.962;2022-11-15T00:44:29;101084.19;;;11.95;86.78
45813;BME280;31519;45.408;10.962;2022-11-15T00:47:16;101081.50;;;11.68;87.96
45813;BME280;31519;45.408;10.962;2022-11-15T00:50:05;101076.63;;;11.56;89.24
45813;BME280;31519;45.408;10.962;2022-11-15T00:52:51;101072.63;;;11.86;88.25
45813;BME280;31519;45.408;10.962;2022-11-15T00:55:38;101079.63;;;11.82;87.55
45813;BME280;31519;45.408;10.962;2022-11-15T00:58:25;101077.34;;;11.62;88.10
45813;BME280;31519;45.408;10.962;2022-11-15T01:01:13;101070.84;;;11.82;87.18
45813;BME280;31519;45.408;10.962;2022-11-15T01:04:00;101079.03;;;11.72;87.50
45813;BME280;31519;45.408;10.962;2022-11-15T01:06:48;101081.19;;;11.70;87.76
45813;BME280;31519;45.408;10.962;2022-11-15T01:09:34;101069.44;;;11.84;86.78
45813;BME280;31519;45.408;10.962;2022-11-15T01:12:21;101077.06;;;11.91;86.81
45813;BME280;31519;45.408;10.962;2022-11-15T01:15:08;101062.94;;;11.77;87.16
45813;BME280;31519;45.408;10.962;2022-11-15T01:17:54;101067.66;;;11.93;86.97
45813;BME280;31519;45.408;10.962;2022-11-15T01:20:41;101063.03;;;11.85;86.71
45813;BME280;31519;45.408;10.962;2022-11-15T01:23:29;101060.72;;;11.92;86.53
45813;BME280;31519;45.408;10.962;2022-11-15T01:26:16;101058.38;;;11.91;86.18
45813;BME280;31519;45.408;10.962;2022-11-15T01:29:03;101061.16;;;11.72;87.58
45813;BME280;31519;45.408;10.962;2022-11-15T01:31:50;101052.63;;;11.97;86.48
45813;BME280;31519;45.408;10.962;2022-11-15T01:34:36;101047.31;;;11.84;86.38
45813;BME280;31519;45.408;10.962;2022-11-15T01:37:23;101042.16;;;11.87;86.64
45813;BME280;31519;45.408;10.962;2022-11-15T01:40:35;101033.47;;;11.68;87.18
45813;BME280;31519;45.408;10.962;2022-11-15T01:43:27;101043.94;;;11.78;87.22
45813;BME280;31519;45.408;10.962;2022-11-15T01:46:29;101027.66;;;12.16;84.88
45813;BME280;31519;45.408;10.962;2022-11-15T01:49:21;101038.72;;;11.87;85.65
45813;BME280;31519;45.408;10.962;2022-11-15T01:52:14;101028.59;;;11.70;86.25
45813;BME280;31519;45.408;10.962;2022-11-15T01:55:05;101025.94;;;11.56;86.83
45813;BME280;31519;45.408;10.962;2022-11-15T01:57:57;101018.63;;;11.89;85.53
45813;BME280;31519;45.408;10.962;2022-11-15T02:00:45;101024.25;;;11.88;85.53
45813;BME280;31519;45.408;10.962;2022-11-15T02:03:58;101019.25;;;11.73;85.81
45813;BME280;31519;45.408;10.962;2022-11-15T02:06:46;101023.38;;;11.51;86.67
45813;BME280;31519;45.408;10.962;2022-11-15T02:14:01;101012.31;;;11.58;87.36
45813;BME280;31519;45.408;10.962;2022-11-15T02:22:51;100999.69;;;11.36;86.99
45813;BME280;31519;45.408;10.962;2022-11-15T02:29:20;100985.84;;;11.48;87.01
45813;BME280;31519;45.408;10.962;2022-11-15T02:32:21;100984.66;;;11.40;87.12
45813;BME280;31519;45.408;10.962;2022-11-15T02:38:22;100983.44;;;11.74;85.03
45813;BME280;31519;45.408;10.962;2022-11-15T02:41:46;100988.13;;;11.14;87.01
45813;BME280;31519;45.408;10.962;2022-11-15T02:44:38;100985.75;;;10.66;89.48
45813;BME280;31519;45.408;10.962;2022-11-15T02:47:31;100975.81;;;10.72;89.90
45813;BME280;31519;45.408;10.962;2022-11-15T02:50:24;100982.03;;;10.81;90.09
45813;BME280;31519;45.408;10.962;2022-11-15T02:53:14;100985.63;;;10.90;89.54
45813;BME280;31519;45.408;10.962;2022-11-15T02:56:01;100984.22;;;10.92;89.34
45813;BME280;31519;45.408;10.962;2022-11-15T03:04:56;100982.53;;;10.83;88.51
45813;BME280;31519;45.408;10.962;2022-11-15T03:11:09;100980.75;;;10.92;88.44
45813;BME280;31519;45.408;10.962;2022-11-15T03:17:30;100988.59;;;11.16;86.38
45813;BME280;31519;45.408;10.962;2022-11-15T03:20:17;100971.72;;;11.06;86.64
45813;BME280;31519;45.408;10.962;2022-11-15T03:23:10;100969.66;;;11.31;85.94
45813;BME280;31519;45.408;10.962;2022-11-15T03:26:00;100973.78;;;11.37;85.77
45813;BME280;31519;45.408;10.962;2022-11-15T03:29:01;100973.09;;;11.04;85.79
45813;BME280;31519;45.408;10.962;2022-11-15T03:31:55;100973.09;;;10.90;86.96
45813;BME280;31519;45.408;10.962;2022-11-15T03:37:52;100977.13;;;11.01;86.40
45813;BME280;31519;45.408;10.962;2022-11-15T03:41:02;100981.47;;;10.97;86.75
45813;BME280;31519;45.408;10.962;2022-11-15T03:44:05;100989.28;;;11.21;85.99
45813;BME280;31519;45.408;10.962;2022-11-15T03:47:07;100985.84;;;11.07;86.62
45813;BME280;31519;45.408;10.962;2022-11-15T03:50:00;100978.72;;;11.30;85.79
45813;BME280;31519;45.408;10.962;2022-11-15T03:52:49;100981.41;;;11.43;85.01
45813;BME280;31519;45.408;10.962;2022-11-15T03:55:36;100967.97;;;11.21;85.39
45813;BME280;31519;45.408;10.962;2022-11-15T03:58:23;100966.78;;;11.14;86.12
45813;BME280;31519;45.408;10.962;2022-11-15T04:01:10;100952.56;;;11.18;85.73
45813;BME280;31519;45.408;10.962;2022-11-15T04:03:56;100940.31;;;11.31;85.12
45813;BME280;31519;45.408;10.962;2022-11-15T04:06:43;100941.41;;;11.30;85.15
45813;BME280;31519;45.408;10.962;2022-11-15T04:09:29;100942.00;;;11.13;85.37
45813;BME280;31519;45.408;10.962;2022-11-15T04:12:16;100941.22;;;11.26;84.91
45813;BME280;31519;45.408;10.962;2022-11-15T04:15:21;100952.66;;;11.27;84.46
45813;BME280;31519;45.408;10.962;2022-11-15T04:18:09;100953.34;;;11.19;83.93
45813;BME280;31519;45.408;10.962;2022-11-15T04:20:55;100957.22;;;11.13;84.25
45813;BME280;31519;45.408;10.962;2022-11-15T04:24:00;100957.66;;;10.87;86.55
45813;BME280;31519;45.408;10.962;2022-11-15T04:31:43;100946.97;;;10.60;87.51
45813;BME280;31519;45.408;10.962;2022-11-15T04:34:31;100939.75;;;10.60;87.91
45813;BME280;31519;45.408;10.962;2022-11-15T04:37:18;100935.34;;;10.83;86.90
45813;BME280;31519;45.408;10.962;2022-11-15T04:40:05;100929.41;;;10.73;86.29
45813;BME280;31519;45.408;10.962;2022-11-15T04:42:52;100931.69;;;10.79;85.94
45813;BME280;31519;45.408;10.962;2022-11-15T04:45:46;100933.28;;;10.66;86.74
45813;BME280;31519;45.408;10.962;2022-11-15T04:48:32;100934.09;;;10.94;84.58
45813;BME280;31519;45.408;10.962;2022-11-15T04:51:19;100934.25;;;10.71;85.74
45813;BME280;31519;45.408;10.962;2022-11-15T04:54:08;100918.88;;;10.81;86.10
45813;BME280;31519;45.408;10.962;2022-11-15T04:56:55;100919.28;;;10.88;84.59
45813;BME280;31519;45.408;10.962;2022-11-15T04:59:42;100914.03;;;10.70;85.11
45813;BME280;31519;45.408;10.962;2022-11-15T05:02:29;100917.50;;;10.97;84.33
45813;BME280;31519;45.408;10.962;2022-11-15T05:05:35;100926.03;;;10.53;85.60
45813;BME280;31519;45.408;10.962;2022-11-15T05:08:22;100921.50;;;10.54;85.99
45813;BME280;31519;45.408;10.962;2022-11-15T05:11:09;100923.66;;;10.52;86.23
45813;BME280;31519;45.408;10.962;2022-11-15T05:13:56;100915.88;;;10.69;86.19
45813;BME280;31519;45.408;10.962;2022-11-15T05:16:43;100923.00;;;10.74;85.61
45813;BME280;31519;45.408;10.962;2022-11-15T05:19:30;100930.75;;;11.02;84.64
45813;BME280;31519;45.408;10.962;2022-11-15T05:22:16;100923.72;;;10.79;85.15
45813;BME280;31519;45.408;10.962;2022-11-15T05:25:05;100928.25;;;10.92;85.01
45813;BME280;31519;45.408;10.962;2022-11-15T05:27:51;100933.28;;;10.80;86.85
45813;BME280;31519;45.408;10.962;2022-11-15T05:30:38;100929.31;;;10.78;88.00
45813;BME280;31519;45.408;10.962;2022-11-15T05:33:26;100936.34;;;10.87;87.71
45813;BME280;31519;45.408;10.962;2022-11-15T05:39:14;100941.09;;;10.44;87.84
45813;BME280;31519;45.408;10.962;2022-11-15T05:46:33;100945.59;;;9.93;90.30
45813;BME280;31519;45.408;10.962;2022-11-15T05:49:24;100948.84;;;9.90;90.27
45813;BME280;31519;45.408;10.962;2022-11-15T05:52:15;100955.31;;;10.21;89.10
45813;BME280;31519;45.408;10.962;2022-11-15T05:55:04;100954.88;;;9.95;89.77
45813;BME280;31519;45.408;10.962;2022-11-15T05:57:53;100945.94;;;9.86;90.11
45813;BME280;31519;45.408;10.962;2022-11-15T06:05:30;100960.25;;;10.09;88.83
45813;BME280;31519;45.408;10.962;2022-11-15T06:08:18;100955.72;;;10.09;89.42
45813;BME280;31519;45.408;10.962;2022-11-15T06:11:05;100960.91;;;10.01;89.92
45813;BME280;31519;45.408;10.962;2022-11-15T06:13:53;100957.00;;;10.17;88.61
45813;BME280;31519;45.408;10.962;2022-11-15T06:21:31;100958.19;;;10.25;88.90
45813;BME280;31519;45.408;10.962;2022-11-15T06:24:18;100955.81;;;10.23;88.92
45813;BME280;31519;45.408;10.962;2022-11-15T06:27:04;100957.66;;;10.04;90.35
45813;BME280;31519;45.408;10.962;2022-11-15T06:29:51;100973.28;;;9.92;90.93
45813;BME280;31519;45.408;10.962;2022-11-15T06:32:38;100961.63;;;10.06;89.72
45813;BME280;31519;45.408;10.962;2022-11-15T06:35:25;100968.53;;;10.07;90.56
45813;BME280;31519;45.408;10.962;2022-11-15T06:38:11;100963.31;;;10.21;89.52
45813;BME280;31519;45.408;10.962;2022-11-15T06:41:02;100964.78;;;10.08;91.21
45813;BME280;31519;45.408;10.962;2022-11-15T06:43:49;100964.50;;;10.10;91.09
45813;BME280;31519;45.408;10.962;2022-11-15T06:46:36;100959.69;;;9.93;91.78
45813;BME280;31519;45.408;10.962;2022-11-15T06:49:23;100966.88;;;10.11;91.29
45813;BME280;31519;45.408;10.962;2022-11-15T06:52:11;100977.66;;;9.83;92.48
45813;BME280;31519;45.408;10.962;2022-11-15T06:54:57;100975.22;;;10.05;91.58
45813;BME280;31519;45.408;10.962;2022-11-15T06:57:51;100993.78;;;10.10;91.25
45813;BME280;31519;45.408;10.962;2022-11-15T07:00:39;100986.81;;;10.14;91.04
45813;BME280;31519;45.408;10.962;2022-11-15T07:03:26;100980.16;;;10.16;91.56
45813;BME280;31519;45.408;10.962;2022-11-15T07:06:13;100980.06;;;10.03;92.59
45813;BME280;31519;45.408;10.962;2022-11-15T07:09:02;100983.28;;;10.00;93.80
45813;BME280;31519;45.408;10.962;2022-11-15T07:11:49;100983.00;;;10.39;91.77
45813;BME280;31519;45.408;10.962;2022-11-15T07:14:36;100981.41;;;10.38;92.04
45813;BME280;31519;45.408;10.962;2022-11-15T07:17:23;100978.63;;;10.29;92.29
45813;BME280;31519;45.408;10.962;2022-11-15T07:20:11;100980.75;;;10.46;91.28
45813;BME280;31519;45.408;10.962;2022-11-15T07:23:04;100983.69;;;10.63;91.68
45813;BME280;31519;45.408;10.962;2022-11-15T07:25:51;100985.25;;;10.64;90.83
45813;BME280;31519;45.408;10.962;2022-11-15T07:28:38;100980.81;;;10.73;90.26
45813;BME280;31519;45.408;10.962;2022-11-15T07:31:25;100982.56;;;10.64;91.21
45813;BME280;31519;45.408;10.962;2022-11-15T07:34:12;100996.69;;;10.64;91.58
45813;BME280;31519;45.408;10.962;2022-11-15T07:37:00;100995.97;;;10.91;89.77
45813;BME280;31519;45.408;10.962;2022-11-15T07:39:46;101004.16;;;10.81;90.53
45813;BME280;31519;45.408;10.962;2022-11-15T07:42:33;100997.47;;;11.11;89.22
45813;BME280;31519;45.408;10.962;2022-11-15T07:45:43;100998.94;;;10.90;89.52
45813;BME280;31519;45.408;10.962;2022-11-15T07:53:05;100998.19;;;10.38;91.97
45813;BME280;31519;45.408;10.962;2022-11-15T08:00:30;100998.31;;;10.79;90.95
45813;BME280;31519;45.408;10.962;2022-11-15T08:03:17;100996.19;;;10.30;93.73
45813;BME280;31519;45.408;10.962;2022-11-15T08:06:03;100988.19;;;10.49;94.56
45813;BME280;31519;45.408;10.962;2022-11-15T08:08:50;100977.81;;;10.93;92.12
45813;BME280;31519;45.408;10.962;2022-11-15T08:11:38;100979.78;;;11.01;91.08
45813;BME280;31519;45.408;10.962;2022-11-15T08:14:24;100986.81;;;10.14;95.23
45813;BME280;31519;45.408;10.962;2022-11-15T08:17:13;100991.41;;;9.90;97.55
45813;BME280;31519;45.408;10.962;2022-11-15T08:19:59;100989.53;;;9.71;100.00
45813;BME280;31519;45.408;10.962;2022-11-15T08:22:46;100985.06;;;10.04;98.43
45813;BME280;31519;45.408;10.962;2022-11-15T08:25:33;100985.75;;;10.34;96.68
45813;BME280;31519;45.408;10.962;2022-11-15T08:28:21;100980.34;;;10.39;96.54
45813;BME280;31519;45.408;10.962;2022-11-15T08:35:50;100988.13;;;10.68;93.71
45813;BME280;31519;45.408;10.962;2022-11-15T08:38:37;100986.88;;;10.79;94.12
45813;BME280;31519;45.408;10.962;2022-11-15T08:41:30;100983.59;;;10.82;94.04
45813;BME280;31519;45.408;10.962;2022-11-15T08:44:17;100978.81;;;11.11;92.93
45813;BME280;31519;45.408;10.962;2022-11-15T08:47:04;100978.81;;;11.52;91.63
45813;BME280;31519;45.408;10.962;2022-11-15T08:49:51;100976.16;;;11.52;90.89
45813;BME280;31519;45.408;10.962;2022-11-15T08:52:38;100979.25;;;11.32;91.37
45813;BME280;31519;45.408;10.962;2022-11-15T08:55:24;100983.53;;;11.00;93.21
45813;BME280;31519;45.408;10.962;2022-11-15T08:58:11;100988.00;;;11.32;92.94
45813;BME280;31519;45.408;10.962;2022-11-15T09:04:34;100985.84;;;11.48;92.66
45813;BME280;31519;45.408;10.962;2022-11-15T09:11:42;100989.53;;;12.02;89.27
45813;BME280;31519;45.408;10.962;2022-11-15T09:14:29;100980.09;;;12.18;89.92
45813;BME280;31519;45.408;10.962;2022-11-15T09:17:16;100977.66;;;12.30;89.32
45813;BME280;31519;45.408;10.962;2022-11-15T09:20:10;100977.94;;;12.28;88.21
45813;BME280;31519;45.408;10.962;2022-11-15T09:26:58;100970.13;;;12.54;88.21
45813;BME280;31519;45.408;10.962;2022-11-15T09:29:44;100979.25;;;12.31;89.04
45813;BME280;31519;45.408;10.962;2022-11-15T09:32:34;100977.13;;;12.41;89.12
45813;BME280;31519;45.408;10.962;2022-11-15T09:35:24;100975.50;;;12.32;88.18
45813;BME280;31519;45.408;10.962;2022-11-15T09:54:11;100968.59;;;12.62;87.89
45813;BME280;31519;45.408;10.962;2022-11-15T09:57:30;100961.06;;;12.64;88.71
45813;BME280;31519;45.408;10.962;2022-11-15T10:03:23;100958.06;;;12.12;91.44
45813;BME280;31519;45.408;10.962;2022-11-15T10:05:56;100958.72;;;11.95;90.93
45813;BME280;31519;45.408;10.962;2022-11-15T10:08:40;100952.41;;;11.91;91.97
45813;BME280;31519;45.408;10.962;2022-11-15T10:20:30;100916.00;;;12.79;90.95
45813;BME280;31519;45.408;10.962;2022-11-15T10:23:05;100924.72;;;12.94;89.73
45813;BME280;31519;45.408;10.962;2022-11-15T10:25:35;100919.41;;;12.63;91.19
45813;BME280;31519;45.408;10.962;2022-11-15T10:37:29;100901.16;;;12.96;89.14
45813;BME280;31519;45.408;10.962;2022-11-15T10:40:06;100898.25;;;12.83;89.61
45813;BME280;31519;45.408;10.962;2022-11-15T10:42:34;100895.94;;;12.91;89.92
45813;BME280;31519;45.408;10.962;2022-11-15T10:45:29;100891.97;;;12.88;89.38
45813;BME280;31519;45.408;10.962;2022-11-15T10:55:26;100884.63;;;13.42;87.71
45813;BME280;31519;45.408;10.962;2022-11-15T11:02:02;100879.06;;;13.29;89.93
45813;BME280;31519;45.408;10.962;2022-11-15T11:14:12;100859.88;;;13.27;86.79
45813;BME280;31519;45.408;10.962;2022-11-15T11:16:43;100856.91;;;13.38;87.59
45813;BME280;31519;45.408;10.962;2022-11-15T11:19:33;100839.41;;;13.66;87.00
45813;BME280;31519;45.408;10.962;2022-11-15T11:22:09;100833.91;;;13.62;87.21
45813;BME280;31519;45.408;10.962;2022-11-15T11:53:37;100804.00;;;13.69;89.02
45813;BME280;31519;45.408;10.962;2022-11-15T11:56:23;100800.41;;;13.56;90.43
45813;BME280;31519;45.408;10.962;2022-11-15T12:03:52;100795.50;;;13.58;90.98
45813;BME280;31519;45.408;10.962;2022-11-15T12:06:31;100781.31;;;13.75;90.50
45813;BME280;31519;45.408;10.962;2022-11-15T12:09:19;100780.34;;;13.80;90.52
45813;BME280;31519;45.408;10.962;2022-11-15T12:16:40;100770.94;;;13.73;90.40
45813;BME280;31519;45.408;10.962;2022-11-15T12:19:10;100769.22;;;13.60;90.75
45813;BME280;31519;45.408;10.962;2022-11-15T12:21:46;100763.66;;;13.83;90.35
45813;BME280;31519;45.408;10.962;2022-11-15T12:24:29;100755.63;;;13.83;89.59
45813;BME280;31519;45.408;10.962;2022-11-15T12:31:12;100751.38;;;13.82;90.62
45813;BME280;31519;45.408;10.962;2022-11-15T12:38:56;100741.63;;;13.77;91.38
45813;BME280;31519;45.408;10.962;2022-11-15T12:41:39;100734.56;;;13.64;91.08
45813;BME280;31519;45.408;10.962;2022-11-15T12:55:32;100715.28;;;14.26;87.96
45813;BME280;31519;45.408;10.962;2022-11-15T13:07:01;100698.19;;;13.71;88.08
45813;BME280;31519;45.408;10.962;2022-11-15T13:16:58;100690.78;;;13.68;89.34
45813;BME280;31519;45.408;10.962;2022-11-15T13:19:28;100689.81;;;13.82;88.95
45813;BME280;31519;45.408;10.962;2022-11-15T13:21:56;100681.69;;;13.99;88.98
45813;BME280;31519;45.408;10.962;2022-11-15T13:28:37;100668.59;;;14.06;88.98
45813;BME280;31519;45.408;10.962;2022-11-15T13:35:38;100659.31;;;14.03;89.01
45813;BME280;31519;45.408;10.962;2022-11-15T13:38:19;100655.38;;;14.01;89.58
45813;BME280;31519;45.408;10.962;2022-11-15T13:45:03;100647.00;;;14.11;89.83
45813;BME280;31519;45.408;10.962;2022-11-15T13:52:06;100642.09;;;14.13;88.25
45813;BME280;31519;45.408;10.962;2022-11-15T14:11:31;100637.09;;;14.03;88.21
45813;BME280;31519;45.408;10.962;2022-11-15T14:14:20;100643.09;;;14.00;86.42
45813;BME280;31519;45.408;10.962;2022-11-15T14:16:54;100636.59;;;14.09;86.64
45813;BME280;31519;45.408;10.962;2022-11-15T14:24:46;100625.81;;;14.18;86.16
45813;BME280;31519;45.408;10.962;2022-11-15T14:27:27;100625.97;;;14.21;86.86
45813;BME280;31519;45.408;10.962;2022-11-15T14:29:55;100621.31;;;14.10;88.28
45813;BME280;31519;45.408;10.962;2022-11-15T14:32:26;100627.78;;;14.09;89.33
45813;BME280;31519;45.408;10.962;2022-11-15T14:34:59;100627.22;;;14.24;88.25
45813;BME280;31519;45.408;10.962;2022-11-15T14:37:30;100623.03;;;14.35;86.95
45813;BME280;31519;45.408;10.962;2022-11-15T14:44:35;100618.06;;;14.25;87.00
45813;BME280;31519;45.408;10.962;2022-11-15T14:47:03;100612.50;;;14.30;87.35
45813;BME280;31519;45.408;10.962;2022-11-15T14:49:31;100612.25;;;13.94;88.18
45813;BME280;31519;45.408;10.962;2022-11-15T14:51:59;100612.72;;;13.96;88.96
45813;BME280;31519;45.408;10.962;2022-11-15T14:54:27;100604.44;;;14.09;88.96
45813;BME280;31519;45.408;10.962;2022-11-15T14:56:55;100603.78;;;14.12;89.57
45813;BME280;31519;45.408;10.962;2022-11-15T14:59:25;100609.63;;;14.14;88.77
45813;BME280;31519;45.408;10.962;2022-11-15T15:01:53;100601.22;;;14.25;87.17
45813;BME280;31519;45.408;10.962;2022-11-15T15:04:21;100601.16;;;14.04;89.50
45813;BME280;31519;45.408;10.962;2022-11-15T15:06:49;100602.03;;;14.16;90.29
45813;BME280;31519;45.408;10.962;2022-11-15T15:09:17;100607.00;;;14.27;88.36
45813;BME280;31519;45.408;10.962;2022-11-15T15:16:20;100606.66;;;13.78;89.01
45813;BME280;31519;45.408;10.962;2022-11-15T15:23:22;100599.31;;;13.66;91.83
45813;BME280;31519;45.408;10.962;2022-11-15T15:25:51;100596.19;;;13.64;93.53
45813;BME280;31519;45.408;10.962;2022-11-15T15:28:20;100591.66;;;13.56;94.09
45813;BME280;31519;45.408;10.962;2022-11-15T15:30:48;100577.31;;;13.61;94.72
45813;BME280;31519;45.408;10.962;2022-11-15T15:42:27;100590.03;;;13.64;95.49
45813;BME280;31519;45.408;10.962;2022-11-15T15:44:55;100588.41;;;13.42;96.14
45813;BME280;31519;45.408;10.962;2022-11-15T15:47:23;100589.59;;;13.53;96.11
45813;BME280;31519;45.408;10.962;2022-11-15T15:49:51;100584.50;;;13.31;96.12
45813;BME280;31519;45.408;10.962;2022-11-15T15:52:20;100586.13;;;13.53;96.21
45813;BME280;31519;45.408;10.962;2022-11-15T15:54:48;100588.09;;;13.35;98.84
45813;BME280;31519;45.408;10.962;2022-11-15T15:57:16;100581.25;;;13.55;99.05
45813;BME280;31519;45.408;10.962;2022-11-15T15:59:44;100574.09;;;13.29;97.92
45813;BME280;31519;45.408;10.962;2022-11-15T16:02:13;100577.78;;;13.54;96.20
45813;BME280;31519;45.408;10.962;2022-11-15T16:04:41;100576.22;;;13.53;96.87
45813;BME280;31519;45.408;10.962;2022-11-15T16:07:20;100565.59;;;13.74;97.21
45813;BME280;31519;45.408;10.962;2022-11-15T16:09:50;100571.06;;;13.77;96.05
45813;BME280;31519;45.408;10.962;2022-11-15T16:12:33;100570.81;;;13.62;96.21
45813;BME280;31519;45.408;10.962;2022-11-15T16:15:02;100574.34;;;13.54;97.58
45813;BME280;31519;45.408;10.962;2022-11-15T16:17:35;100574.94;;;13.04;100.00
45813;BME280;31519;45.408;10.962;2022-11-15T16:20:05;100577.25;;;13.31;99.99
45813;BME280;31519;45.408;10.962;2022-11-15T16:22:35;100576.78;;;13.29;99.87
45813;BME280;31519;45.408;10.962;2022-11-15T16:25:03;100576.50;;;13.22;100.00
45813;BME280;31519;45.408;10.962;2022-11-15T16:27:33;100572.69;;;13.32;100.00
45813;BME280;31519;45.408;10.962;2022-11-15T16:30:01;100574.69;;;13.44;99.45
45813;BME280;31519;45.408;10.962;2022-11-15T16:32:30;100565.97;;;13.17;97.57
45813;BME280;31519;45.408;10.962;2022-11-15T16:34:59;100563.69;;;13.37;97.43
45813;BME280;31519;45.408;10.962;2022-11-15T16:37:29;100561.78;;;13.46;97.64
45813;BME280;31519;45.408;10.962;2022-11-15T16:39:57;100560.09;;;13.32;97.80
45813;BME280;31519;45.408;10.962;2022-11-15T16:47:01;100556.91;;;13.39;98.81
45813;BME280;31519;45.408;10.962;2022-11-15T16:49:29;100549.50;;;13.45;97.79
45813;BME280;31519;45.408;10.962;2022-11-15T16:51:57;100549.81;;;13.52;97.45
45813;BME280;31519;45.408;10.962;2022-11-15T16:54:25;100548.31;;;13.25;98.14
45813;BME280;31519;45.408;10.962;2022-11-15T16:56:53;100549.75;;;13.22;98.52
45813;BME280;31519;45.408;10.962;2022-11-15T17:07:16;100550.97;;;13.34;99.04
45813;BME280;31519;45.408;10.962;2022-11-15T17:18:54;100545.94;;;13.70;95.82
45813;BME280;31519;45.408;10.962;2022-11-15T17:21:22;100550.56;;;13.52;96.96
45813;BME280;31519;45.408;10.962;2022-11-15T17:23:51;100549.59;;;13.57;96.57
45813;BME280;31519;45.408;10.962;2022-11-15T17:26:20;100545.19;;;13.61;96.50
45813;BME280;31519;45.408;10.962;2022-11-15T17:28:59;100548.78;;;13.65;96.39
45813;BME280;31519;45.408;10.962;2022-11-15T17:31:29;100547.13;;;13.52;96.88
45813;BME280;31519;45.408;10.962;2022-11-15T17:34:02;100540.28;;;13.34;97.83
45813;BME280;31519;45.408;10.962;2022-11-15T17:36:30;100550.16;;;13.42;98.60
45813;BME280;31519;45.408;10.962;2022-11-15T17:38:58;100540.47;;;13.58;97.98
45813;BME280;31519;45.408;10.962;2022-11-15T17:46:15;100530.97;;;13.69;98.04
45813;BME280;31519;45.408;10.962;2022-11-15T17:48:45;100533.00;;;13.72;97.79
45813;BME280;31519;45.408;10.962;2022-11-15T17:51:15;100527.75;;;13.55;98.25
45813;BME280;31519;45.408;10.962;2022-11-15T17:53:45;100531.94;;;13.64;98.22
45813;BME280;31519;45.408;10.962;2022-11-15T17:56:19;100525.50;;;13.65;98.41
45813;BME280;31519;45.408;10.962;2022-11-15T17:58:50;100529.09;;;13.69;97.95
45813;BME280;31519;45.408;10.962;2022-11-15T18:06:09;100530.38;;;13.84;96.26
45813;BME280;31519;45.408;10.962;2022-11-15T18:08:39;100530.38;;;13.84;96.03
45813;BME280;31519;45.408;10.962;2022-11-15T18:11:13;100531.84;;;13.82;96.11
45813;BME280;31519;45.408;10.962;2022-11-15T18:18:34;100513.50;;;13.63;98.88
45813;BME280;31519;45.408;10.962;2022-11-15T18:24:32;100512.97;;;13.49;99.07
45813;BME280;31519;45.408;10.962;2022-11-15T18:32:43;100517.88;;;13.47;100.00
45813;BME280;31519;45.408;10.962;2022-11-15T18:35:11;100520.88;;;13.66;99.14
45813;BME280;31519;45.408;10.962;2022-11-15T18:37:39;100507.56;;;13.57;99.76
45813;BME280;31519;45.408;10.962;2022-11-15T18:40:09;100505.50;;;13.63;99.60
45813;BME280;31519;45.408;10.962;2022-11-15T18:42:37;100506.47;;;13.58;99.87
45813;BME280;31519;45.408;10.962;2022-11-15T18:45:06;100503.22;;;13.44;100.00
45813;BME280;31519;45.408;10.962;2022-11-15T18:47:34;100498.63;;;13.53;100.00
45813;BME280;31519;45.408;10.962;2022-11-15T18:50:04;100490.31;;;13.46;100.00
45813;BME280;31519;45.408;10.962;2022-11-15T18:52:32;100491.31;;;13.62;99.36
45813;BME280;31519;45.408;10.962;2022-11-15T18:55:00;100483.56;;;13.69;99.45
45813;BME280;31519;45.408;10.962;2022-11-15T18:57:29;100479.25;;;13.56;98.99
45813;BME280;31519;45.408;10.962;2022-11-15T18:59:58;100484.94;;;13.75;98.09
45813;BME280;31519;45.408;10.962;2022-11-15T19:02:26;100475.69;;;13.73;98.42
45813;BME280;31519;45.408;10.962;2022-11-15T19:04:55;100475.13;;;13.59;99.17
45813;BME280;31519;45.408;10.962;2022-11-15T19:07:23;100466.31;;;13.58;99.83
45813;BME280;31519;45.408;10.962;2022-11-15T19:09:51;100462.22;;;13.61;99.61
45813;BME280;31519;45.408;10.962;2022-11-15T19:12:19;100462.00;;;13.45;100.00
45813;BME280;31519;45.408;10.962;2022-11-15T19:14:47;100460.97;;;13.58;99.79
45813;BME280;31519;45.408;10.962;2022-11-15T19:17:15;100448.50;;;13.62;99.25
45813;BME280;31519;45.408;10.962;2022-11-15T19:19:43;100455.66;;;13.50;99.74